• Join FlightAware (Why Join?)
  • Login
  • US Flag 
10:49PM EST


 

Airport Tracker/Info


-or-


 

Live Flight TrackerFlight Track Log ✈ DAL1660 ✈ 09-May-2013 ✈ KATL - KBWI

Flight Track Log - Related Links

Times and Time Zones

All times are in EDT time to prevent confusion due to time zone crossing. See the DAL1660 flight status page for this flight to view local times or setup timezone preferences in your user account.

Time Position Orientation Groundspeed Altitude Reporting Facility
EDT Latitude Longitude Course Direction KTS MPH feet Rate Location/Type
08:53PM 33.6167 -84.5000 48° Northeast 213 245 2,900  Level Atlanta TRACON
08:54PM 33.5833 -84.5833 244° Southwest 266 306 5,600 2,160 Climbing Atlanta TRACON
08:55PM 33.8443 -84.1671 73° East  Level Estimated
08:56PM 33.9134 -84.0799 54° Northeast  Level Estimated
08:56PM 33.4533 -84.4819 147° Southeast 266 306 10,700  Level Atlanta Center
08:57PM 33.8948 -83.9614 101° East  Level FlightAware Approximate
08:57PM 33.4578 -84.3575 88° East 323 372 12,300  Level Atlanta Center
08:58PM 33.9645 -83.8748 48° Northeast  Level Estimated
08:58PM 33.5019 -84.2431 65° Northeast 364 419 14,700  Level Atlanta Center
08:59PM 33.6022 -84.1833 26° Northeast 367 422 16,800 2,040 Climbing Atlanta Center
09:00PM 33.7044 -84.1161 29° Northeast 397 457 18,800 1,920 Climbing Atlanta Center
09:01PM 33.7797 -84.0039 51° Northeast 427 491 20,700 1,680 Climbing Atlanta Center
09:02PM 33.8464 -83.8786 57° Northeast 439 505 22,200 1,140 Climbing Atlanta Center
09:03PM 33.9169 -83.7433 58° Northeast 459 528 23,000 960 Climbing Atlanta Center
09:04PM 33.9939 -83.6178 54° Northeast 464 534 24,200 1,500 Climbing Atlanta Center
09:05PM 34.0728 -83.4894 53° Northeast 475 547 26,000 1,620 Climbing Atlanta Center
09:06PM 34.1536 -83.3661 52° Northeast 475 547 27,500 1,620 Climbing Atlanta Center
09:07PM 34.2300 -83.2397 54° Northeast 475 547 29,300 1,560 Climbing Atlanta Center
09:08PM 34.3144 -83.1031 53° Northeast 469 540 30,700 840 Climbing Atlanta Center
09:09PM 34.3908 -82.9817 53° Northeast 464 534 31,000 240 Climbing Atlanta Center
09:10PM 34.4689 -82.8569 53° Northeast 452 520 31,200 600 Climbing Atlanta Center
09:11PM 34.5408 -82.7375 54° Northeast 452 520 32,200 960 Climbing Atlanta Center
09:12PM 34.6125 -82.6128 55° Northeast 452 520 33,200 840 Climbing Atlanta Center
09:13PM 34.6800 -82.5081 52° Northeast 444 511 33,900 900 Climbing Atlanta Center
09:14PM 34.7517 -82.3881 54° Northeast 439 505 35,000 540 Climbing Atlanta Center
09:15PM 34.8231 -82.2728 53° Northeast 439 505 35,000  Level Atlanta Center
09:16PM 34.8942 -82.1522 54° Northeast 439 505 35,000  Level Atlanta Center
09:17PM 34.9756 -82.0261 52° Northeast 434 499 35,000 -420 Level Atlanta Center
09:18PM 35.0447 -81.9078 54° Northeast 434 499 34,200 -1,020 Descending Atlanta Center
09:19PM 35.1111 -81.7817 57° Northeast 434 499 33,000 -600 Descending Atlanta Center
09:20PM 35.1778 -81.6578 57° Northeast 439 505 33,000  Level Atlanta Center
09:21PM 35.2439 -81.5286 58° Northeast 446 513 33,000  Level Atlanta Center
09:22PM 35.3042 -81.4150 57° Northeast 446 513 33,000  Level Atlanta Center
09:23PM 35.3681 -81.2856 59° Northeast 446 513 33,000  Level Atlanta Center
09:24PM 35.4361 -81.1558 57° Northeast 446 513 33,000  Level Atlanta Center
09:25PM 35.5119 -81.0128 57° Northeast 446 513 33,000  Level Atlanta Center
09:26PM 35.5775 -80.8853 58° Northeast 446 513 33,000  Level Atlanta Center
09:27PM 35.6372 -80.7731 57° Northeast 446 513 33,000  Level Atlanta Center
09:28PM 35.7067 -80.6450 56° Northeast 446 513 33,000  Level Atlanta Center
09:29PM 35.7719 -80.5169 58° Northeast 446 513 33,000  Level Atlanta Center
09:32PM 35.9250 -80.2142 58° Northeast 445 512 33,000  Level Washington Center
09:33PM 35.9969 -80.0747 57° Northeast 440 506 33,000  Level Washington Center
09:34PM 36.0622 -79.9497 57° Northeast 435 501 33,000  Level Washington Center
09:35PM 36.1356 -79.8228 54° Northeast 435 501 33,000  Level Washington Center
09:36PM 36.1981 -79.7053 57° Northeast 448 516 33,000  Level Washington Center
09:37PM 36.2756 -79.5700 55° Northeast 448 516 33,000 -720 Level Washington Center
09:38PM 36.3486 -79.4447 54° Northeast 443 510 31,700 -1,320 Descending Washington Center
09:39PM 36.4153 -79.3192 57° Northeast 443 510 30,500 -1,200 Descending Washington Center
09:40PM 36.4858 -79.1958 55° Northeast 438 504 29,400 -780 Descending Washington Center
09:41PM 36.5583 -79.0700 54° Northeast 438 504 29,000 -240 Descending Washington Center
09:42PM 36.6286 -78.9461 55° Northeast 438 504 29,000  Level Washington Center
09:43PM 36.6903 -78.8244 58° Northeast 438 504 29,000  Level Washington Center
09:44PM 36.7692 -78.6878 54° Northeast 443 510 29,000 -480 Level Washington Center
09:45PM 36.8369 -78.5608 56° Northeast 443 510 28,100 -540 Descending Washington Center
09:46PM 36.9089 -78.4389 54° Northeast 437 503 28,000 -240 Descending Washington Center
09:47PM 36.9719 -78.3217 56° Northeast 438 504 27,700 -540 Descending Washington Center
09:48PM 37.0417 -78.1939 56° Northeast 438 504 27,000 -360 Descending Washington Center
09:49PM 37.1092 -78.0661 56° Northeast 433 498 27,000  Level Washington Center
09:50PM 37.1783 -77.9328 57° Northeast 438 504 27,000  Level Washington Center
09:51PM 37.2700 -77.8364 40° Northeast 438 504 27,000 -180 Level Washington Center
09:52PM 37.3775 -77.7689 27° Northeast 420 483 26,700 -1,200 Descending Washington Center
09:53PM 37.4831 -77.7064 25° Northeast 420 483 24,700 -1,860 Descending Washington Center
09:54PM 37.5864 -77.6411 27° Northeast 415 478 23,000 -900 Descending Washington Center
09:55PM 37.6897 -77.5811 25° Northeast 408 470 23,000  Level Washington Center
09:56PM 37.7908 -77.5128 28° Northeast 408 470 23,000  Level Washington Center
09:57PM 37.8939 -77.4494 26° Northeast 408 470 23,000 -300 Level Washington Center
09:58PM 37.9931 -77.3861 27° Northeast 408 470 22,500 -1,320 Descending Washington Center
09:59PM 38.0919 -77.3253 26° Northeast 398 458 20,400 -2,100 Descending Washington Center
10:00PM 38.1886 -77.2639 27° Northeast 392 451 18,400 -2,340 Descending Washington Center
10:01PM 38.2814 -77.2025 27° Northeast 381 438 15,900 -1,680 Descending Washington Center
10:02PM 38.3758 -77.1383 28° Northeast 381 438 15,000 -1,260 Descending Washington Center
10:03PM 38.4542 -77.0525 41° Northeast 371 427 13,400 -1,620 Descending Washington Center
10:04PM 38.5283 -76.9611 44° Northeast 366 421 11,800 -1,320 Descending Washington Center
10:05PM 38.5958 -76.8800 43° Northeast 347 399 10,800 -900 Descending Washington Center
10:06PM 38.6569 -76.8067 43° Northeast 321 369 10,000 -900 Descending Washington Center
10:07PM 38.7097 -76.7383 45° Northeast 289 333 9,000 -1,260 Descending Washington Center
10:08PM 38.7481 -76.6536 60° Northeast 278 320 7,500 -1,440 Descending Washington Center
10:09PM 38.8167 -76.5667 45° Northeast 264 304 6,000 -1,080 Descending Potomac TRACON
10:10PM 38.8833 -76.5500 11° North 238 274 5,300 -960 Descending Potomac TRACON
10:11PM 38.9500 -76.5667 349° North 223 257 4,000 -1,200 Descending Potomac TRACON